עמוד ראשי
METAR-TAF:

METAR-TAF

שדות תעופה :

DeLand, פלורידה, ארצות הברית

קו רוחב: 29-04-01N, קו אורך: 081-17-02W, גובה: 24מטר

תצפית מזג אוויר נוכחית

הדו"ח נערך לפני 38דקות, בשעה 18:30 UTC
רוח 15קשר מכיוון מזרח עם משבים עד 19קשר
טמפרטורת 32 צלסיוס
לחות 52%
לחץ 1018 hPa
ראות: 16.1קילומטר
עננים פזורים בגובה 3900רגל
עננים פזורים בגובה 4600רגל
עננים בינוניים בגובה 6000רגל

METAR: KDED 171830Z AUTO 08015G19KT 10SM SCT039 SCT046 BKN060 32/21 A3007 RMK AO2 T03180210

זמן: 15:08 (19:08 UTC)


TAF: חסר

תצפיות ותחזיות מזג אוויר לגבי יותר מ- 4,000 שדות תעופה ברחבי העולם. דוחות METAR ו- TAF.

התחנות הזמינות מסומנות בנקודות צהובות ואדומות על גבי המפה.

העבר את העכבר לנקודה הצבעונית על מנת לראות את שם התחנה.

לאחר מכן, לחץ כדי לראות את תוכן ואת תחזיות מזג האוויר.

כדי לשנות את המפה: לחץ על הכפתורים הירוקים עם הפלוס השחור כדי להתקרב; על הכפתור הירוק עם המקף כדי להתרחק; או בחיצים הירוקים למפות סמוכות.


METAR-TAF: